createdAt,value
2022-11-05T00:00:16.238Z,15.50
2022-11-05T00:03:01.584Z,16.07
2022-11-05T00:05:49.422Z,16.87
2022-11-05T00:08:34.281Z,17.33
2022-11-05T00:11:02.454Z,17.13
2022-11-05T00:13:49.426Z,16.27
2022-11-05T00:16:37.308Z,16.57
2022-11-05T00:19:09.001Z,16.23
2022-11-05T00:21:56.746Z,16.27
2022-11-05T00:24:43.177Z,15.20
2022-11-05T00:27:11.545Z,16.27
2022-11-05T00:29:40.927Z,17.33
2022-11-05T00:32:08.901Z,16.23
2022-11-05T00:34:36.877Z,16.83
2022-11-05T00:37:05.033Z,16.13
2022-11-05T00:39:33.014Z,16.40
2022-11-05T00:42:18.322Z,16.03
2022-11-05T00:45:02.950Z,15.60
2022-11-05T00:47:49.146Z,16.03
2022-11-05T00:50:18.010Z,16.13
2022-11-05T00:52:59.367Z,15.73
2022-11-05T00:55:30.519Z,16.10
2022-11-05T00:57:58.978Z,16.87
2022-11-05T01:00:30.589Z,16.73
2022-11-05T01:03:00.280Z,15.90
2022-11-05T01:05:29.089Z,16.40
2022-11-05T01:07:57.944Z,16.80
2022-11-05T01:10:26.465Z,17.20
2022-11-05T01:12:55.046Z,17.50
2022-11-05T01:15:23.293Z,18.60
2022-11-05T01:17:53.716Z,17.20
2022-11-05T01:20:21.716Z,18.10
2022-11-05T01:22:49.625Z,16.87
2022-11-05T01:25:17.749Z,18.10
2022-11-05T01:27:46.634Z,17.73
2022-11-05T01:30:15.216Z,17.43
2022-11-05T01:32:43.237Z,16.93
2022-11-05T01:35:15.841Z,18.23
2022-11-05T01:37:44.304Z,17.67
2022-11-05T01:40:13.672Z,17.03
2022-11-05T01:42:41.849Z,17.40
2022-11-05T01:45:16.223Z,17.77
2022-11-05T01:48:01.195Z,16.57
2022-11-05T01:50:38.524Z,17.07
2022-11-05T01:53:12.213Z,18.23
2022-11-05T01:55:45.201Z,18.17
2022-11-05T01:58:16.337Z,17.57
2022-11-05T02:00:44.680Z,17.40
2022-11-05T02:03:16.172Z,17.40
2022-11-05T02:05:46.415Z,18.40
2022-11-05T02:08:22.973Z,19.27
2022-11-05T02:10:51.664Z,18.57
2022-11-05T02:13:19.608Z,16.43
2022-11-05T02:15:57.384Z,17.90
2022-11-05T02:18:37.940Z,17.67
2022-11-05T02:21:32.243Z,17.63
2022-11-05T02:24:30.170Z,17.30
2022-11-05T02:27:18.904Z,18.53
2022-11-05T02:30:08.383Z,17.60
2022-11-05T02:32:59.018Z,18.73
2022-11-05T02:35:48.972Z,18.80
2022-11-05T02:38:27.403Z,17.17
2022-11-05T02:41:05.055Z,18.00
2022-11-05T02:43:44.632Z,17.73
2022-11-05T02:46:22.332Z,17.43
2022-11-05T02:48:58.963Z,16.67
2022-11-05T02:51:35.864Z,17.53
2022-11-05T02:54:10.551Z,16.67
2022-11-05T02:56:42.461Z,17.47
2022-11-05T02:59:10.404Z,17.50
2022-11-05T03:01:40.927Z,16.50
2022-11-05T03:04:13.983Z,16.13
2022-11-05T03:06:59.988Z,16.03
2022-11-05T03:10:04.331Z,16.77
2022-11-05T03:12:39.716Z,16.27
2022-11-05T03:15:16.885Z,15.50
2022-11-05T03:17:52.586Z,16.63
2022-11-05T03:20:25.648Z,16.33
2022-11-05T03:22:57.113Z,15.93
2022-11-05T03:25:28.656Z,16.07
2022-11-05T03:28:01.662Z,16.73
2022-11-05T03:30:30.159Z,15.27
2022-11-05T03:33:03.002Z,15.43
2022-11-05T03:35:38.639Z,16.63
2022-11-05T03:38:10.738Z,17.00
2022-11-05T03:40:40.250Z,16.77
2022-11-05T03:43:10.055Z,15.63
2022-11-05T03:45:43.208Z,15.67
2022-11-05T03:48:14.485Z,16.40
2022-11-05T03:50:49.540Z,15.53
2022-11-05T03:53:20.860Z,16.97
2022-11-05T03:55:55.608Z,16.50
2022-11-05T03:58:25.006Z,16.07
2022-11-05T04:00:53.224Z,16.10
2022-11-05T04:03:21.362Z,15.40
2022-11-05T04:06:13.898Z,15.90
2022-11-05T04:08:55.905Z,14.57
2022-11-05T04:11:41.568Z,14.40
2022-11-05T04:14:09.535Z,14.33
2022-11-05T04:16:54.952Z,14.60
2022-11-05T04:19:36.872Z,13.33
2022-11-05T04:22:23.463Z,13.70
2022-11-05T04:24:51.439Z,13.60
2022-11-05T04:27:19.375Z,14.67
2022-11-05T04:30:04.684Z,14.53
2022-11-05T04:32:32.621Z,14.17
2022-11-05T04:35:00.567Z,14.00
2022-11-05T04:37:29.879Z,14.23
2022-11-05T04:39:57.895Z,14.70
2022-11-05T04:42:25.911Z,15.37
2022-11-05T04:44:53.847Z,16.47
2022-11-05T04:47:21.772Z,16.30
2022-11-05T04:49:49.757Z,18.30
2022-11-05T04:52:17.984Z,17.00
2022-11-05T04:54:47.315Z,16.10
2022-11-05T04:57:15.267Z,15.27
2022-11-05T04:59:43.223Z,15.43
2022-11-05T05:02:11.238Z,16.03
2022-11-05T05:04:39.269Z,16.87
2022-11-05T05:07:07.242Z,16.40
2022-11-05T05:09:35.175Z,16.10
2022-11-05T05:12:04.721Z,15.77
2022-11-05T05:14:32.667Z,15.83
2022-11-05T05:17:00.695Z,16.73
2022-11-05T05:19:28.741Z,16.50
2022-11-05T05:21:55.711Z,17.33
2022-11-05T05:24:25.045Z,19.10
2022-11-05T05:26:53.130Z,18.47
2022-11-05T05:29:22.428Z,16.80
2022-11-05T05:31:50.398Z,18.23
2022-11-05T05:34:18.516Z,17.73
2022-11-05T05:36:46.531Z,17.77
2022-11-05T05:39:14.577Z,17.70
2022-11-05T05:41:42.531Z,15.17
2022-11-05T05:44:10.722Z,16.57
2022-11-05T05:46:40.039Z,16.07
2022-11-05T05:49:12.457Z,16.27
2022-11-05T05:51:40.701Z,16.03
2022-11-05T05:54:09.042Z,15.60
2022-11-05T05:56:37.000Z,16.00
2022-11-05T05:59:06.732Z,16.97
2022-11-05T06:01:34.882Z,17.20
2022-11-05T06:04:04.379Z,18.10
2022-11-05T06:06:32.477Z,17.73
2022-11-05T06:09:00.470Z,18.10
2022-11-05T06:11:28.540Z,18.33
2022-11-05T06:13:56.563Z,17.50
2022-11-05T06:16:24.840Z,17.17
2022-11-05T06:18:52.914Z,17.70
2022-11-05T06:21:22.226Z,17.80
2022-11-05T06:23:50.189Z,18.30
2022-11-05T06:26:20.165Z,17.77
2022-11-05T06:28:48.180Z,17.90
2022-11-05T06:31:16.481Z,19.27
2022-11-05T06:33:44.449Z,17.40
2022-11-05T06:36:16.500Z,16.80
2022-11-05T06:38:46.034Z,18.37
2022-11-05T06:41:14.129Z,16.70
2022-11-05T06:43:42.720Z,16.83
2022-11-05T06:46:11.348Z,16.80
2022-11-05T06:48:39.452Z,17.53
2022-11-05T06:51:08.932Z,16.17
2022-11-05T06:53:37.331Z,16.43
2022-11-05T06:56:08.112Z,15.77
2022-11-05T06:58:36.288Z,16.23
2022-11-05T07:01:05.483Z,15.17
2022-11-05T07:03:33.445Z,13.77
2022-11-05T07:06:02.020Z,14.17
2022-11-05T07:08:32.929Z,14.17
2022-11-05T07:11:01.369Z,13.70
2022-11-05T07:13:30.786Z,14.47
2022-11-05T07:15:59.189Z,13.73
2022-11-05T07:18:27.203Z,13.67
2022-11-05T07:20:55.245Z,14.47
2022-11-05T07:23:23.229Z,14.00
2022-11-05T07:25:51.452Z,14.47
2022-11-05T07:28:19.481Z,13.87
2022-11-05T07:30:49.253Z,14.23
2022-11-05T07:33:17.228Z,13.97
2022-11-05T07:35:45.229Z,13.03
2022-11-05T07:38:13.225Z,13.40
2022-11-05T07:40:41.225Z,13.13
2022-11-05T07:43:10.209Z,11.93
2022-11-05T07:45:38.536Z,12.17
2022-11-05T07:48:08.308Z,11.40
2022-11-05T07:50:38.029Z,10.80
2022-11-05T07:53:07.640Z,11.37
2022-11-05T07:55:35.711Z,11.27
2022-11-05T07:58:03.975Z,10.50
2022-11-05T08:00:32.358Z,10.20
2022-11-05T08:03:07.205Z,10.00
2022-11-05T08:05:39.646Z,9.87
2022-11-05T08:08:09.079Z,8.40
2022-11-05T08:10:37.254Z,8.37
2022-11-05T08:13:06.343Z,6.93
2022-11-05T08:15:35.303Z,6.23
2022-11-05T08:18:05.415Z,6.50
2022-11-05T08:20:34.129Z,5.73
2022-11-05T08:23:03.591Z,5.70
2022-11-05T08:25:32.309Z,5.80
2022-11-05T08:28:02.871Z,5.63
2022-11-05T08:30:31.799Z,4.87
2022-11-05T08:33:01.349Z,4.80
2022-11-05T08:35:30.377Z,5.13
2022-11-05T08:37:59.300Z,4.83
2022-11-05T08:40:29.223Z,4.07
2022-11-05T08:42:59.407Z,4.20
2022-11-05T08:45:28.116Z,3.53
2022-11-05T08:48:00.590Z,3.47
2022-11-05T08:50:28.583Z,3.27
2022-11-05T08:52:56.545Z,3.40
2022-11-05T08:55:25.023Z,3.30
2022-11-05T08:57:58.166Z,3.67
2022-11-05T09:00:26.739Z,4.07
2022-11-05T09:02:54.694Z,3.40
2022-11-05T09:05:22.926Z,3.43
2022-11-05T09:07:53.171Z,3.37
2022-11-05T09:10:24.531Z,3.47
2022-11-05T09:12:52.452Z,3.30
2022-11-05T09:15:23.202Z,4.67
2022-11-05T09:17:51.297Z,5.13
2022-11-05T09:20:19.504Z,4.77
2022-11-05T09:22:48.261Z,4.87
2022-11-05T09:25:16.565Z,5.23
2022-11-05T09:27:44.910Z,3.87
2022-11-05T09:30:14.797Z,5.47
2022-11-05T09:32:44.058Z,3.47
2022-11-05T09:35:11.994Z,2.40
2022-11-05T09:37:40.231Z,2.80
2022-11-05T09:40:08.987Z,2.37
2022-11-05T09:42:41.793Z,2.53
2022-11-05T09:45:15.953Z,2.10
2022-11-05T09:47:49.178Z,2.30
2022-11-05T09:50:23.590Z,2.50
2022-11-05T09:52:51.677Z,2.60
2022-11-05T09:55:27.417Z,3.40
2022-11-05T09:57:58.591Z,2.87
2022-11-05T10:00:26.736Z,5.30
2022-11-05T10:02:59.640Z,3.90
2022-11-05T10:05:28.678Z,2.60
2022-11-05T10:08:01.301Z,2.50
2022-11-05T10:10:41.106Z,2.63
2022-11-05T10:13:20.417Z,2.50
2022-11-05T10:15:56.515Z,2.57
2022-11-05T10:18:28.913Z,2.90
2022-11-05T10:20:57.607Z,3.03
2022-11-05T10:23:28.326Z,3.30
2022-11-05T10:25:59.512Z,3.40
2022-11-05T10:28:31.250Z,3.37
2022-11-05T10:31:01.808Z,3.27
2022-11-05T10:33:36.828Z,5.37
2022-11-05T10:36:08.076Z,3.40
2022-11-05T10:38:36.156Z,3.00
2022-11-05T10:41:18.824Z,2.43
2022-11-05T10:43:50.382Z,2.73
2022-11-05T10:46:29.730Z,2.27
2022-11-05T10:49:12.262Z,2.33
2022-11-05T10:51:40.780Z,2.43
2022-11-05T10:54:18.200Z,1.90
2022-11-05T10:56:46.517Z,3.23
2022-11-05T10:59:22.240Z,2.60
2022-11-05T11:01:58.245Z,3.20
2022-11-05T11:04:34.913Z,2.27
2022-11-05T11:07:06.071Z,2.50
2022-11-05T11:09:37.412Z,2.60
2022-11-05T11:12:08.289Z,2.20
2022-11-05T11:14:37.318Z,2.40
2022-11-05T11:17:27.835Z,2.07
2022-11-05T11:20:20.912Z,2.50
2022-11-05T11:23:01.274Z,2.77
2022-11-05T11:25:40.996Z,2.30
2022-11-05T11:28:19.338Z,3.07
2022-11-05T11:30:53.155Z,3.00
2022-11-05T11:33:24.209Z,3.00
2022-11-05T11:35:53.660Z,2.93
2022-11-05T11:38:25.045Z,3.33
2022-11-05T11:41:00.956Z,3.77
2022-11-05T11:43:31.744Z,4.33
2022-11-05T11:46:05.395Z,4.50
2022-11-05T11:48:37.336Z,6.30
2022-11-05T11:51:21.019Z,5.47
2022-11-05T11:53:50.649Z,4.97
2022-11-05T11:56:20.566Z,6.27
2022-11-05T11:58:50.381Z,5.83
2022-11-05T12:01:54.217Z,5.03
2022-11-05T12:05:01.867Z,4.63
2022-11-05T12:07:46.249Z,4.40
2022-11-05T12:10:38.381Z,5.50
2022-11-05T12:13:43.452Z,5.43
2022-11-05T12:16:23.318Z,5.30
2022-11-05T12:18:58.084Z,5.50
2022-11-05T12:21:51.837Z,5.30
2022-11-05T12:25:02.927Z,12.83
2022-11-05T12:27:48.120Z,5.77
2022-11-05T12:30:18.891Z,5.30
2022-11-05T12:33:08.720Z,4.80
2022-11-05T12:35:57.723Z,5.37
2022-11-05T12:38:41.051Z,4.57
2022-11-05T12:41:20.800Z,5.00
2022-11-05T12:44:02.331Z,4.60
2022-11-05T12:46:36.264Z,4.83
2022-11-05T12:49:33.974Z,4.40
2022-11-05T12:52:18.499Z,3.93
2022-11-05T12:54:59.514Z,3.57
2022-11-05T12:57:32.942Z,4.20
2022-11-05T13:00:08.240Z,3.20
2022-11-05T13:02:42.704Z,3.40
2022-11-05T13:05:15.987Z,3.93
2022-11-05T13:07:50.510Z,3.23
2022-11-05T13:10:26.754Z,3.47
2022-11-05T13:13:02.262Z,3.17
2022-11-05T13:15:33.858Z,3.10
2022-11-05T13:18:06.543Z,3.37
2022-11-05T13:20:37.977Z,3.40
2022-11-05T13:23:13.984Z,3.47
2022-11-05T13:25:48.198Z,2.97
2022-11-05T13:28:32.726Z,4.77
2022-11-05T13:31:03.645Z,4.93
2022-11-05T13:33:35.551Z,6.50
2022-11-05T13:36:25.092Z,6.20
2022-11-05T13:39:06.968Z,7.83
2022-11-05T13:41:49.422Z,6.30
2022-11-05T13:44:51.343Z,5.93
2022-11-05T13:47:38.045Z,5.77
2022-11-05T13:50:29.194Z,5.30
2022-11-05T13:53:11.716Z,5.40
2022-11-05T13:55:57.652Z,4.60
2022-11-05T13:59:07.045Z,4.73
2022-11-05T14:01:45.258Z,4.13
2022-11-05T14:04:26.046Z,4.47
2022-11-05T14:06:54.949Z,5.20
2022-11-05T14:09:27.849Z,5.80
2022-11-05T14:12:00.265Z,6.80
2022-11-05T14:14:31.161Z,6.83
2022-11-05T14:17:16.333Z,6.93
2022-11-05T14:19:52.861Z,6.70
2022-11-05T14:22:40.417Z,7.60
2022-11-05T14:26:00.137Z,6.83
2022-11-05T14:28:46.399Z,7.17
2022-11-05T14:32:02.516Z,7.30
2022-11-05T14:34:43.434Z,7.70
2022-11-05T14:37:36.908Z,6.97
2022-11-05T14:40:33.209Z,5.97
2022-11-05T14:43:04.287Z,6.67
2022-11-05T14:45:33.981Z,6.60
2022-11-05T14:48:04.228Z,5.43
2022-11-05T14:50:39.589Z,5.60
2022-11-05T14:53:13.938Z,5.40
2022-11-05T14:55:44.141Z,5.43
2022-11-05T14:58:34.192Z,6.47
2022-11-05T15:01:04.087Z,6.30
2022-11-05T15:04:04.107Z,6.27
2022-11-05T15:06:35.852Z,6.20
2022-11-05T15:09:18.120Z,7.43
2022-11-05T15:12:09.016Z,6.17
2022-11-05T15:14:42.741Z,5.77
2022-11-05T15:17:20.129Z,6.27
2022-11-05T15:19:48.940Z,5.97
2022-11-05T15:22:31.148Z,5.73
2022-11-05T15:24:59.761Z,5.10
2022-11-05T15:27:42.772Z,5.23
2022-11-05T15:30:21.884Z,5.17
2022-11-05T15:32:49.886Z,5.30
2022-11-05T15:35:23.553Z,5.33
2022-11-05T15:38:00.356Z,5.57
2022-11-05T15:40:31.868Z,5.70
2022-11-05T15:43:10.804Z,6.30
2022-11-05T15:45:40.080Z,6.27
2022-11-05T15:48:15.584Z,7.07
2022-11-05T15:50:43.666Z,6.93
2022-11-05T15:56:22.833Z,8.63
2022-11-05T15:58:53.996Z,7.80
2022-11-05T16:01:24.499Z,8.00
2022-11-05T16:03:53.708Z,7.30
2022-11-05T16:06:22.173Z,6.60
2022-11-05T16:08:51.964Z,6.27
2022-11-05T16:11:26.724Z,6.10
2022-11-05T16:14:13.431Z,5.93
2022-11-05T16:16:41.415Z,7.23
2022-11-05T16:19:39.848Z,5.83
2022-11-05T16:22:08.817Z,6.97
2022-11-05T16:24:38.140Z,6.50
2022-11-05T16:27:07.076Z,9.83
2022-11-05T16:29:37.114Z,9.80
2022-11-05T16:32:13.622Z,12.90
2022-11-05T16:34:44.250Z,11.30
2022-11-05T16:37:14.840Z,8.50
2022-11-05T16:39:44.118Z,9.03
2022-11-05T16:42:40.268Z,8.40
2022-11-05T16:45:11.390Z,9.60
2022-11-05T16:47:39.378Z,7.53
2022-11-05T16:50:22.242Z,7.93
2022-11-05T16:52:50.663Z,8.37
2022-11-05T16:55:20.523Z,7.30
2022-11-05T16:57:52.051Z,7.80
2022-11-05T17:00:21.786Z,11.27
2022-11-05T17:02:50.240Z,9.97
2022-11-05T17:05:22.415Z,9.80
2022-11-05T17:07:50.438Z,9.90
2022-11-05T17:10:20.617Z,9.80
2022-11-05T17:12:48.976Z,9.50
2022-11-05T17:15:25.938Z,10.23
2022-11-05T17:17:55.291Z,9.73
2022-11-05T17:20:38.355Z,9.97
2022-11-05T17:23:09.259Z,11.93
2022-11-05T17:25:39.002Z,12.00
2022-11-05T17:28:07.155Z,10.87
2022-11-05T17:30:35.113Z,8.83
2022-11-05T17:33:03.556Z,8.23
2022-11-05T17:35:31.802Z,9.23
2022-11-05T17:37:59.786Z,9.27
2022-11-05T17:40:28.872Z,9.13
2022-11-05T17:42:58.190Z,10.07
2022-11-05T17:45:26.222Z,10.07
2022-11-05T17:47:54.205Z,10.20
2022-11-05T17:50:22.333Z,18.37
2022-11-05T17:52:50.379Z,31.87
2022-11-05T17:55:18.381Z,22.67
2022-11-05T17:57:48.189Z,17.67
2022-11-05T18:00:19.904Z,12.93
2022-11-05T18:02:49.443Z,12.90
2022-11-05T18:05:18.287Z,12.13
2022-11-05T18:07:47.249Z,11.77
2022-11-05T18:10:15.873Z,11.43
2022-11-05T18:12:44.729Z,15.40
2022-11-05T18:15:13.909Z,12.80
2022-11-05T18:17:44.354Z,11.87
2022-11-05T18:20:18.644Z,11.20
2022-11-05T18:22:49.502Z,11.57
2022-11-05T18:25:18.274Z,11.63
2022-11-05T18:27:46.401Z,12.27
2022-11-05T18:30:15.873Z,11.80
2022-11-05T18:32:45.845Z,11.10
2022-11-05T18:35:14.559Z,11.73
2022-11-05T18:37:43.408Z,11.13
2022-11-05T18:40:12.557Z,10.93
2022-11-05T18:42:41.046Z,12.30
2022-11-05T18:45:10.333Z,12.30
2022-11-05T18:47:38.608Z,11.53
2022-11-05T18:50:10.464Z,10.87
2022-11-05T18:52:38.462Z,10.17
2022-11-05T18:55:07.549Z,10.53
2022-11-05T18:57:35.736Z,10.37
2022-11-05T19:00:05.070Z,11.23
2022-11-05T19:02:33.250Z,12.60
2022-11-05T19:05:27.470Z,15.00
2022-11-05T19:07:50.862Z,11.90
2022-11-05T19:10:19.094Z,13.20
2022-11-05T19:12:47.058Z,11.83
2022-11-05T19:15:15.032Z,11.43
2022-11-05T19:17:43.009Z,12.17
2022-11-05T19:20:11.699Z,11.50
2022-11-05T19:22:39.685Z,10.67
2022-11-05T19:25:09.632Z,10.93
2022-11-05T19:27:38.664Z,12.17
2022-11-05T19:30:07.237Z,9.60
2022-11-05T19:32:35.214Z,9.53
2022-11-05T19:35:03.168Z,10.83
2022-11-05T19:37:31.135Z,9.97
2022-11-05T19:39:59.077Z,10.87
2022-11-05T19:42:29.156Z,11.67
2022-11-05T19:45:06.878Z,10.53
2022-11-05T19:47:44.916Z,11.87
2022-11-05T19:50:12.952Z,11.97
2022-11-05T19:52:41.200Z,11.30
2022-11-05T19:55:12.239Z,11.20
2022-11-05T19:57:41.857Z,12.90
2022-11-05T20:00:11.217Z,13.67
2022-11-05T20:02:39.269Z,13.33
2022-11-05T20:05:07.435Z,13.23
2022-11-05T20:07:35.539Z,14.63
2022-11-05T20:10:03.723Z,12.63
2022-11-05T20:12:31.931Z,11.10
2022-11-05T20:15:01.248Z,11.57
2022-11-05T20:17:29.184Z,11.30
2022-11-05T20:19:57.142Z,14.30
2022-11-05T20:22:25.443Z,12.07
2022-11-05T20:24:53.455Z,13.83
2022-11-05T20:27:21.503Z,12.70
2022-11-05T20:29:49.487Z,11.53
2022-11-05T20:32:18.747Z,12.07
2022-11-05T20:34:46.719Z,12.43
2022-11-05T20:37:14.840Z,12.07
2022-11-05T20:39:42.840Z,13.03
2022-11-05T20:42:10.758Z,14.37
2022-11-05T20:44:38.715Z,12.07
2022-11-05T20:47:07.174Z,12.50
2022-11-05T20:49:36.514Z,13.03
2022-11-05T20:52:04.486Z,14.23
2022-11-05T20:54:33.030Z,13.43
2022-11-05T20:57:00.990Z,14.33
2022-11-05T20:59:28.932Z,14.37
2022-11-05T21:01:57.042Z,14.03
2022-11-05T21:04:25.149Z,15.47
2022-11-05T21:06:54.518Z,14.23
2022-11-05T21:09:22.594Z,14.13
2022-11-05T21:12:07.149Z,14.17
2022-11-05T21:14:35.103Z,15.87
2022-11-05T21:17:03.834Z,15.73
2022-11-05T21:19:32.449Z,14.97
2022-11-05T21:22:02.210Z,14.00
2022-11-05T21:24:30.503Z,14.17
2022-11-05T21:26:58.429Z,14.63
2022-11-05T21:29:26.398Z,14.73
2022-11-05T21:31:54.893Z,18.83
2022-11-05T21:34:22.851Z,15.80
2022-11-05T21:36:51.553Z,15.77
2022-11-05T21:39:21.153Z,14.00
2022-11-05T21:41:50.993Z,14.77
2022-11-05T21:44:19.108Z,14.83
2022-11-05T21:46:47.052Z,15.07
2022-11-05T21:49:15.571Z,16.83
2022-11-05T21:52:01.251Z,18.13
2022-11-05T21:54:47.937Z,17.87
2022-11-05T21:57:34.722Z,17.73
2022-11-05T22:00:04.189Z,20.70
2022-11-05T22:02:32.661Z,17.97
2022-11-05T22:05:02.200Z,17.57
2022-11-05T22:07:33.015Z,16.97
2022-11-05T22:10:02.657Z,14.77
2022-11-05T22:12:32.169Z,18.50
2022-11-05T22:15:00.106Z,63.50
2022-11-05T22:17:28.793Z,109.90
2022-11-05T22:19:57.190Z,65.93
2022-11-05T22:22:25.159Z,39.23
2022-11-05T22:24:53.166Z,43.83
2022-11-05T22:27:22.932Z,39.23
2022-11-05T22:29:51.485Z,33.53
2022-11-05T22:32:19.823Z,32.57
2022-11-05T22:34:49.307Z,33.43
2022-11-05T22:37:17.565Z,39.27
2022-11-05T22:39:45.634Z,38.33
2022-11-05T22:42:13.686Z,39.37
2022-11-05T22:44:43.355Z,36.83
2022-11-05T22:47:11.307Z,29.33
2022-11-05T22:49:39.382Z,28.07
2022-11-05T22:52:07.604Z,28.67
2022-11-05T22:54:39.277Z,33.00
2022-11-05T22:57:07.691Z,31.13
2022-11-05T22:59:35.671Z,38.23
2022-11-05T23:02:09.494Z,33.77
2022-11-05T23:04:38.007Z,35.13
2022-11-05T23:07:27.957Z,32.87
2022-11-05T23:10:14.002Z,30.97
2022-11-05T23:12:43.650Z,29.10
2022-11-05T23:15:33.343Z,30.87
2022-11-05T23:18:19.944Z,29.80
2022-11-05T23:21:10.348Z,32.37
2022-11-05T23:23:56.120Z,31.37
2022-11-05T23:26:41.611Z,27.30
2022-11-05T23:29:09.752Z,31.70
2022-11-05T23:31:55.216Z,27.57
2022-11-05T23:34:24.492Z,27.23
2022-11-05T23:37:09.902Z,26.73
2022-11-05T23:39:42.391Z,24.93
2022-11-05T23:42:28.354Z,25.57
2022-11-05T23:45:14.856Z,27.97
2022-11-05T23:48:00.502Z,27.90
2022-11-05T23:50:35.682Z,32.77
2022-11-05T23:53:06.616Z,28.57
2022-11-05T23:55:34.570Z,28.47
2022-11-05T23:58:02.743Z,28.27
